createdAt,value
2019-05-02T00:02:30.075Z,65.90
2019-05-02T00:05:34.775Z,65.50
2019-05-02T00:08:39.565Z,65.70
2019-05-02T00:11:43.871Z,65.70
2019-05-02T00:14:48.283Z,65.70
2019-05-02T00:17:56.758Z,65.60
2019-05-02T00:21:01.455Z,65.30
2019-05-02T00:24:06.695Z,65.00
2019-05-02T00:27:11.000Z,64.90
2019-05-02T00:30:15.928Z,64.60
2019-05-02T00:33:20.298Z,64.60
2019-05-02T00:36:24.596Z,64.60
2019-05-02T00:39:28.961Z,64.70
2019-05-02T00:42:33.304Z,65.00
2019-05-02T00:45:37.622Z,65.40
2019-05-02T00:48:54.162Z,65.70
2019-05-02T00:52:01.228Z,66.00
2019-05-02T00:55:02.623Z,65.90
2019-05-02T00:58:06.936Z,66.00
2019-05-02T01:01:33.219Z,66.00
2019-05-02T01:04:39.548Z,65.90
2019-05-02T01:07:43.881Z,66.00
2019-05-02T01:10:52.087Z,66.00
2019-05-02T01:13:55.868Z,65.90
2019-05-02T01:17:00.371Z,65.80
2019-05-02T01:20:05.365Z,65.70
2019-05-02T01:23:09.692Z,65.60
2019-05-02T01:26:13.983Z,65.50
2019-05-02T01:29:36.695Z,65.40
2019-05-02T01:33:01.330Z,65.40
2019-05-02T01:36:08.182Z,65.30
2019-05-02T01:39:13.266Z,65.30
2019-05-02T01:42:17.573Z,65.30
2019-05-02T01:45:21.881Z,65.20
2019-05-02T01:48:26.356Z,65.20
2019-05-02T01:51:30.695Z,65.30
2019-05-02T01:54:36.107Z,65.40
2019-05-02T01:57:44.754Z,65.40
2019-05-02T02:00:46.462Z,65.50
2019-05-02T02:03:50.793Z,65.50
2019-05-02T02:06:55.086Z,65.40
2019-05-02T02:10:01.138Z,65.40
2019-05-02T02:13:05.564Z,65.30
2019-05-02T02:16:09.970Z,65.30
2019-05-02T02:19:22.371Z,65.30
2019-05-02T02:22:41.111Z,65.20
2019-05-02T02:26:06.779Z,65.30
2019-05-02T02:29:12.517Z,65.00
2019-05-02T02:32:19.984Z,64.80
2019-05-02T02:35:22.827Z,64.70
2019-05-02T02:38:33.783Z,64.60
2019-05-02T02:41:33.187Z,64.50
2019-05-02T02:44:56.427Z,64.60
2019-05-02T02:48:02.588Z,64.40
2019-05-02T02:51:06.804Z,64.40
2019-05-02T02:54:11.150Z,64.30
2019-05-02T02:57:25.684Z,64.40
2019-05-02T03:00:21.492Z,64.40
2019-05-02T03:03:27.965Z,64.50
2019-05-02T03:06:31.980Z,64.50
2019-05-02T03:09:36.219Z,64.70
2019-05-02T03:13:08.484Z,64.70
2019-05-02T03:16:16.734Z,64.70
2019-05-02T03:19:23.102Z,64.80
2019-05-02T03:22:27.146Z,64.90
2019-05-02T03:25:50.120Z,65.10
2019-05-02T03:28:37.738Z,65.10
2019-05-02T03:31:42.133Z,64.60
2019-05-02T03:34:52.274Z,65.20
2019-05-02T03:37:53.290Z,65.30
2019-05-02T03:40:57.656Z,65.40
2019-05-02T03:44:11.183Z,65.50
2019-05-02T03:47:08.399Z,65.60
2019-05-02T03:50:13.112Z,65.80
2019-05-02T03:53:24.773Z,66.10
2019-05-02T03:56:23.674Z,66.20
2019-05-02T03:59:37.552Z,66.30
2019-05-02T04:02:34.186Z,66.50
2019-05-02T04:05:40.495Z,66.60
2019-05-02T04:08:45.445Z,66.70
2019-05-02T04:11:49.766Z,66.80
2019-05-02T04:14:56.044Z,67.00
2019-05-02T04:18:00.629Z,67.10
2019-05-02T04:21:04.931Z,67.20
2019-05-02T04:24:14.997Z,67.50
2019-05-02T04:27:16.001Z,67.60
2019-05-02T04:30:20.311Z,68.60
2019-05-02T04:33:29.193Z,68.10
2019-05-02T04:36:31.789Z,68.30
2019-05-02T04:39:39.147Z,69.10
2019-05-02T04:42:42.468Z,68.40
2019-05-02T04:45:55.816Z,68.30
2019-05-02T04:48:53.376Z,68.10
2019-05-02T04:52:06.155Z,68.00
2019-05-02T04:55:14.742Z,67.90
2019-05-02T04:58:10.122Z,67.90
2019-05-02T05:01:14.471Z,68.00
2019-05-02T05:04:18.782Z,68.10
2019-05-02T05:07:23.182Z,68.10
2019-05-02T05:10:27.818Z,68.30
2019-05-02T05:13:36.923Z,68.20
2019-05-02T05:16:45.362Z,67.80
2019-05-02T05:19:48.737Z,68.20
2019-05-02T05:22:53.267Z,68.20
2019-05-02T05:26:03.243Z,68.10
2019-05-02T05:29:05.053Z,68.20
2019-05-02T05:32:10.282Z,68.30
2019-05-02T05:35:14.807Z,68.40
2019-05-02T05:38:22.958Z,68.50
2019-05-02T05:41:27.835Z,68.40
2019-05-02T05:44:32.856Z,68.40
2019-05-02T05:47:37.810Z,68.40
2019-05-02T05:50:42.674Z,68.30
2019-05-02T05:53:47.968Z,68.30
2019-05-02T05:56:53.395Z,68.10
2019-05-02T05:59:58.434Z,68.20
2019-05-02T06:03:11.573Z,68.20
2019-05-02T06:06:10.267Z,68.10
2019-05-02T06:09:15.446Z,68.00
2019-05-02T06:12:20.187Z,68.00
2019-05-02T06:15:24.557Z,68.10
2019-05-02T06:18:29.274Z,68.30
2019-05-02T06:21:34.000Z,68.30
2019-05-02T06:24:38.420Z,68.20
2019-05-02T06:27:42.770Z,68.10
2019-05-02T06:30:47.403Z,68.40
2019-05-02T06:33:51.756Z,68.30
2019-05-02T06:36:56.088Z,68.40
2019-05-02T06:40:03.067Z,68.10
2019-05-02T06:43:09.861Z,67.90
2019-05-02T06:46:16.456Z,68.00
2019-05-02T06:49:24.148Z,68.40
2019-05-02T06:52:27.207Z,68.80
2019-05-02T06:55:36.234Z,70.20
2019-05-02T06:58:42.296Z,70.20
2019-05-02T07:01:46.888Z,68.80
2019-05-02T07:04:54.729Z,68.50
2019-05-02T07:07:58.662Z,67.60
2019-05-02T07:11:03.721Z,67.00
2019-05-02T07:14:13.516Z,65.60
2019-05-02T07:17:31.962Z,64.40
2019-05-02T07:20:40.710Z,64.70
2019-05-02T07:23:43.525Z,63.50
2019-05-02T07:26:52.027Z,62.80
2019-05-02T07:29:57.830Z,63.00
2019-05-02T07:33:01.204Z,62.70
2019-05-02T07:36:06.876Z,63.00
2019-05-02T07:39:11.608Z,62.30
2019-05-02T07:42:15.955Z,61.70
2019-05-02T07:45:20.566Z,61.00
2019-05-02T07:48:25.499Z,60.70
2019-05-02T07:51:30.746Z,60.70
2019-05-02T07:54:35.747Z,60.30
2019-05-02T07:57:40.705Z,59.30
2019-05-02T08:00:45.469Z,58.90
2019-05-02T08:03:50.185Z,58.30
2019-05-02T08:06:54.510Z,58.10
2019-05-02T08:09:59.392Z,58.10
2019-05-02T08:13:03.726Z,57.70
2019-05-02T08:16:08.134Z,56.60
2019-05-02T08:19:12.889Z,55.40
2019-05-02T08:22:17.452Z,55.10
2019-05-02T08:25:21.901Z,54.40
2019-05-02T08:28:34.886Z,54.10
2019-05-02T08:31:39.224Z,53.40
2019-05-02T08:34:46.209Z,53.90
2019-05-02T08:37:50.034Z,54.20
2019-05-02T08:40:54.716Z,54.10
2019-05-02T08:43:59.039Z,54.30
2019-05-02T08:47:03.354Z,54.30
2019-05-02T08:50:11.364Z,53.00
2019-05-02T08:53:19.834Z,52.20
2019-05-02T08:56:22.932Z,51.90
2019-05-02T08:59:27.244Z,51.70
2019-05-02T09:02:41.273Z,51.50
2019-05-02T09:05:45.281Z,51.40
2019-05-02T09:08:46.109Z,51.30
2019-05-02T09:12:04.944Z,50.90
2019-05-02T09:14:57.214Z,50.30
2019-05-02T09:18:02.820Z,50.10
2019-05-02T09:21:12.485Z,50.00
2019-05-02T09:24:21.400Z,49.20
2019-05-02T09:27:23.854Z,49.40
2019-05-02T09:30:29.941Z,49.50
2019-05-02T09:33:36.722Z,48.60
2019-05-02T09:36:41.849Z,48.60
2019-05-02T09:39:46.544Z,48.20
2019-05-02T09:42:56.050Z,48.20
2019-05-02T09:45:58.137Z,47.70
2019-05-02T09:49:09.000Z,47.80
2019-05-02T09:52:08.872Z,48.00
2019-05-02T09:55:15.467Z,48.00
2019-05-02T09:58:22.819Z,47.10
2019-05-02T10:01:42.113Z,47.40
2019-05-02T10:04:46.589Z,48.00
2019-05-02T10:07:52.587Z,48.40
2019-05-02T10:10:57.166Z,47.80
2019-05-02T10:14:02.452Z,47.80
2019-05-02T10:17:07.511Z,47.40
2019-05-02T10:20:12.540Z,47.60
2019-05-02T10:23:19.547Z,48.00
2019-05-02T10:26:24.570Z,47.20
2019-05-02T10:29:29.918Z,46.40
2019-05-02T10:32:34.376Z,46.50
2019-05-02T10:35:43.371Z,45.70
2019-05-02T10:38:48.930Z,45.60
2019-05-02T10:41:57.456Z,45.30
2019-05-02T10:45:02.553Z,45.60
2019-05-02T10:48:06.384Z,45.80
2019-05-02T10:51:28.550Z,46.00
2019-05-02T10:54:37.310Z,45.50
2019-05-02T10:57:39.269Z,44.90
2019-05-02T11:00:45.482Z,44.30
2019-05-02T11:03:51.647Z,44.40
2019-05-02T11:06:56.804Z,44.80
2019-05-02T11:10:06.695Z,44.90
2019-05-02T11:13:14.013Z,43.70
2019-05-02T11:16:42.212Z,43.40
2019-05-02T11:19:52.670Z,43.30
2019-05-02T11:22:57.353Z,43.10
2019-05-02T11:26:01.782Z,43.30
2019-05-02T11:29:08.880Z,43.00
2019-05-02T11:32:13.632Z,42.30
2019-05-02T11:35:18.021Z,42.30
2019-05-02T11:38:41.408Z,42.00
2019-05-02T11:41:31.733Z,41.60
2019-05-02T11:44:36.682Z,42.10
2019-05-02T11:47:42.290Z,42.00
2019-05-02T11:50:47.149Z,41.50
2019-05-02T11:53:59.337Z,41.90
2019-05-02T11:57:03.423Z,41.90
2019-05-02T12:00:09.624Z,42.50
2019-05-02T12:03:28.033Z,41.70
2019-05-02T12:06:29.862Z,42.50
2019-05-02T12:09:34.592Z,42.00
2019-05-02T12:12:39.690Z,42.10
2019-05-02T12:15:44.995Z,42.30
2019-05-02T12:18:49.327Z,42.70
2019-05-02T12:22:16.910Z,42.00
2019-05-02T12:25:22.346Z,42.40
2019-05-02T12:28:26.749Z,42.30
2019-05-02T12:31:32.630Z,42.40
2019-05-02T12:34:37.461Z,42.60
2019-05-02T12:37:42.504Z,42.70
2019-05-02T12:40:46.949Z,42.70
2019-05-02T12:43:52.428Z,43.10
2019-05-02T12:46:56.924Z,43.50
2019-05-02T12:50:03.171Z,44.10
2019-05-02T12:53:09.081Z,44.10
2019-05-02T12:56:13.409Z,43.80
2019-05-02T12:59:17.684Z,44.20
2019-05-02T13:02:41.690Z,44.50
2019-05-02T13:05:46.107Z,44.30
2019-05-02T13:08:52.437Z,44.30
2019-05-02T13:12:04.637Z,44.50
2019-05-02T13:15:09.600Z,44.90
2019-05-02T13:18:18.737Z,45.30
2019-05-02T13:21:24.122Z,45.50
2019-05-02T13:28:01.977Z,45.40
2019-05-02T13:31:13.481Z,45.30
2019-05-02T13:34:32.971Z,45.20
2019-05-02T13:37:37.351Z,45.30
2019-05-02T13:40:46.081Z,45.40
2019-05-02T13:43:52.447Z,45.90
2019-05-02T13:46:57.019Z,45.90
2019-05-02T13:50:03.790Z,45.90
2019-05-02T13:53:07.587Z,45.80
2019-05-02T13:56:46.540Z,45.80
2019-05-02T13:59:52.569Z,45.40
2019-05-02T14:02:57.462Z,45.80
2019-05-02T14:06:02.964Z,45.90
2019-05-02T14:09:28.411Z,46.20
2019-05-02T14:12:57.822Z,46.40
2019-05-02T14:16:02.373Z,46.40
2019-05-02T14:19:12.739Z,46.10
2019-05-02T14:22:17.096Z,45.60
2019-05-02T14:25:22.410Z,46.00
2019-05-02T14:28:31.204Z,46.20
2019-05-02T14:31:33.953Z,46.20
2019-05-02T14:35:00.025Z,46.40
2019-05-02T14:38:14.793Z,46.10
2019-05-02T14:41:30.119Z,46.20
2019-05-02T14:45:01.463Z,46.10
2019-05-02T14:47:42.322Z,46.00
2019-05-02T14:50:49.650Z,46.20
2019-05-02T14:53:57.559Z,46.00
2019-05-02T14:57:08.219Z,46.10
2019-05-02T15:00:14.217Z,46.00
2019-05-02T15:03:24.528Z,46.50
2019-05-02T15:06:25.986Z,46.80
2019-05-02T15:09:32.219Z,47.00
2019-05-02T15:12:36.366Z,46.60
2019-05-02T15:15:41.585Z,46.50
2019-05-02T15:18:47.565Z,46.50
2019-05-02T15:21:55.932Z,46.70
2019-05-02T15:24:58.779Z,47.20
2019-05-02T15:28:03.164Z,47.40
2019-05-02T15:31:11.884Z,47.60
2019-05-02T15:34:22.801Z,48.10
2019-05-02T15:37:27.701Z,47.40
2019-05-02T15:43:39.283Z,46.50
2019-05-02T15:46:42.567Z,46.50
2019-05-02T15:49:46.909Z,46.70
2019-05-02T15:53:03.206Z,46.70
2019-05-02T15:56:18.615Z,46.90
2019-05-02T15:59:15.435Z,46.80
2019-05-02T16:02:22.886Z,46.60
2019-05-02T16:05:26.924Z,46.70
2019-05-02T16:08:33.029Z,46.90
2019-05-02T16:11:37.446Z,47.10
2019-05-02T16:14:42.438Z,47.20
2019-05-02T16:17:47.061Z,47.20
2019-05-02T16:21:07.028Z,47.30
2019-05-02T16:24:23.196Z,47.40
2019-05-02T16:27:46.612Z,47.20
2019-05-02T16:30:52.700Z,47.20
2019-05-02T16:33:57.522Z,47.40
2019-05-02T16:37:13.558Z,47.60
2019-05-02T16:40:23.933Z,48.50
2019-05-02T16:46:40.795Z,48.20
2019-05-02T16:49:47.952Z,48.30
2019-05-02T16:52:55.629Z,48.20
2019-05-02T16:56:05.575Z,48.00
2019-05-02T16:59:07.739Z,48.30
2019-05-02T17:02:12.312Z,49.00
2019-05-02T17:05:17.214Z,48.40
2019-05-02T17:08:49.404Z,48.50
2019-05-02T17:11:52.589Z,48.20
2019-05-02T17:15:14.775Z,48.60
2019-05-02T17:18:19.076Z,48.70
2019-05-02T17:21:26.905Z,48.80
2019-05-02T17:24:29.455Z,48.90
2019-05-02T17:27:33.799Z,49.00
2019-05-02T17:30:39.423Z,49.00
2019-05-02T17:33:46.168Z,49.20
2019-05-02T17:36:51.836Z,49.30
2019-05-02T17:39:56.328Z,49.50
2019-05-02T17:43:02.839Z,49.70
2019-05-02T17:46:12.688Z,49.70
2019-05-02T17:49:14.011Z,49.60
2019-05-02T17:52:33.326Z,50.00
2019-05-02T17:55:56.758Z,50.00
2019-05-02T17:59:02.045Z,49.90
2019-05-02T18:02:11.543Z,50.30
2019-05-02T18:05:35.583Z,50.40
2019-05-02T18:08:37.898Z,50.20
2019-05-02T18:11:42.441Z,50.70
2019-05-02T18:14:53.155Z,50.80
2019-05-02T18:17:53.037Z,50.90
2019-05-02T18:20:57.388Z,51.20
2019-05-02T18:24:04.955Z,51.30
2019-05-02T18:27:08.123Z,51.50
2019-05-02T18:30:25.018Z,51.60
2019-05-02T18:33:24.692Z,51.80
2019-05-02T18:36:31.978Z,51.80
2019-05-02T18:39:45.468Z,51.90
2019-05-02T18:42:44.015Z,51.80
2019-05-02T18:45:51.216Z,51.80
2019-05-02T18:48:55.564Z,51.70
2019-05-02T18:52:01.850Z,51.70
2019-05-02T18:55:06.629Z,51.70
2019-05-02T18:58:31.821Z,51.80
2019-05-02T19:01:39.478Z,51.90
2019-05-02T19:04:46.098Z,52.10
2019-05-02T19:07:52.746Z,52.20
2019-05-02T19:11:08.516Z,52.30
2019-05-02T19:14:02.818Z,52.40
2019-05-02T19:17:09.146Z,52.40
2019-05-02T19:21:06.840Z,52.50
2019-05-02T19:24:12.958Z,52.50
2019-05-02T19:27:29.560Z,52.70
2019-05-02T19:30:34.765Z,52.80
2019-05-02T19:33:42.658Z,53.30
2019-05-02T19:37:04.670Z,53.20
2019-05-02T19:40:31.666Z,53.00
2019-05-02T19:43:40.470Z,53.00
2019-05-02T19:46:42.215Z,53.50
2019-05-02T19:49:47.273Z,53.60
2019-05-02T19:53:01.231Z,53.50
2019-05-02T19:56:01.354Z,53.60
2019-05-02T19:59:04.884Z,53.50
2019-05-02T20:02:09.203Z,53.30
2019-05-02T20:05:16.573Z,53.40
2019-05-02T20:08:24.084Z,53.30
2019-05-02T20:11:28.042Z,53.40
2019-05-02T20:14:32.152Z,53.50
2019-05-02T20:17:36.505Z,53.60
2019-05-02T20:21:12.074Z,53.80
2019-05-02T20:24:19.394Z,54.00
2019-05-02T20:27:23.104Z,54.30
2019-05-02T20:30:27.799Z,54.40
2019-05-02T20:33:32.553Z,54.50
2019-05-02T20:36:37.086Z,54.60
2019-05-02T20:39:41.727Z,54.60
2019-05-02T20:42:46.206Z,54.70
2019-05-02T20:45:52.572Z,54.70
2019-05-02T20:48:56.584Z,54.60
2019-05-02T20:52:02.433Z,54.60
2019-05-02T20:55:07.380Z,54.50
2019-05-02T20:58:12.629Z,54.50
2019-05-02T21:01:17.118Z,55.20
2019-05-02T21:04:22.841Z,54.50
2019-05-02T21:07:37.504Z,54.50
2019-05-02T21:10:54.263Z,54.60
2019-05-02T21:13:58.700Z,54.20
2019-05-02T21:17:03.000Z,55.20
2019-05-02T21:20:27.991Z,54.60
2019-05-02T21:23:43.921Z,54.70
2019-05-02T21:26:38.292Z,54.80
2019-05-02T21:29:42.651Z,55.00
2019-05-02T21:32:47.007Z,55.00
2019-05-02T21:35:52.453Z,55.10
2019-05-02T21:38:56.772Z,55.30
2019-05-02T21:42:02.359Z,55.40
2019-05-02T21:45:06.975Z,55.50
2019-05-02T21:48:11.222Z,55.60
2019-05-02T21:51:34.524Z,55.70
2019-05-02T21:54:45.795Z,55.80
2019-05-02T21:57:52.063Z,56.00
2019-05-02T22:01:15.290Z,56.20
2019-05-02T22:04:19.660Z,56.00
2019-05-02T22:07:24.050Z,56.30
2019-05-02T22:10:28.488Z,56.40
2019-05-02T22:13:32.827Z,56.50
2019-05-02T22:16:37.237Z,56.50
2019-05-02T22:19:41.732Z,56.70
2019-05-02T22:22:46.146Z,56.70
2019-05-02T22:25:52.529Z,56.70
2019-05-02T22:28:57.236Z,56.80
2019-05-02T22:32:02.988Z,56.70
2019-05-02T22:35:26.609Z,56.90
2019-05-02T22:38:49.945Z,56.80
2019-05-02T22:41:54.273Z,56.90
2019-05-02T22:45:01.593Z,57.20
2019-05-02T22:48:14.308Z,57.40
2019-05-02T22:51:18.776Z,57.20
2019-05-02T22:54:27.725Z,57.40
2019-05-02T22:57:29.143Z,57.40
2019-05-02T23:00:33.440Z,57.30
2019-05-02T23:03:37.807Z,58.20
2019-05-02T23:06:44.171Z,57.50
2019-05-02T23:09:48.159Z,57.80
2019-05-02T23:12:52.703Z,57.90
2019-05-02T23:15:57.024Z,58.20
2019-05-02T23:19:02.765Z,58.30
2019-05-02T23:22:07.230Z,58.30
2019-05-02T23:25:42.136Z,58.40
2019-05-02T23:28:51.713Z,58.30
2019-05-02T23:31:56.340Z,58.40
2019-05-02T23:35:01.949Z,58.40
2019-05-02T23:38:06.418Z,58.30
2019-05-02T23:41:12.560Z,58.30
2019-05-02T23:44:17.026Z,58.50
2019-05-02T23:47:22.431Z,58.50
2019-05-02T23:50:26.941Z,58.70
2019-05-02T23:53:31.649Z,58.90
2019-05-02T23:56:36.054Z,59.10
2019-05-02T23:59:42.432Z,59.30
